Aeroporto :
LOGIN :

Iscrizione | Disclaimer

   EN    FR    IT 

 










Sommario :    VFR   VFR Marginale   IFR   IFR Intensivo   IFR Molto Intensivo
Visibilità : 
Base nubi : 
>= 8 km
>= 3000ft
5 / 8 km
1000 / 3000 ft
1500m / 5 km
500 / 1000 ft
800 / 1500m
200 / 500 ft
< 800m
< 200 ft
Simboli :   Temporali  Nebbia  Neve Forte  Precipitazioni Forti  Vento > 20 kt
SIGMETs :   Varie  Temporali  Ghiacco  Turbolenza  Onda orograficha  Ceneri Vulcaniche






- Altitudine del aeroporto : 124 ft
- Codice IATA : NHT


EGWU - RAF Northolt

ULTIMO METAR :
  • 301850Z AUTO 03010KT 9999 // BKN050/// 08/02 Q1031

METARs OBSOLETI :
  • 301750Z 04013KT 9999 FEW035 BKN050 09/01 Q1031 NOSIG RMK BLU BLU
  • 301723Z 04013KT 9999 FEW035 SCT055 09/01 Q1031 NOSIG RMK BLU BLU
  • 301650Z 04014KT 9999 FEW035 BKN050 09/01 Q1031 NOSIG RMK BLU BLU

TAF TAF EGWU
Valido dal 30 a 18 ore il 31 a 12 ore UTC


301648Z 3018/3112 04012KT 9999 SCT035
TEMPO 3018/3021 SCT018



MetMap, La meteo Aeronautica in un colpo d'occhio ! - Copyright ORBIFLY Dicembre 2007 - Disclaimer

ORBIFLY MET'MAP TEAM :

Programmazione e sviluppo : Alexandra Zaïnal
Concezione : Baudouin d'Aumeries
Aiuto per la programmazione : Marc-Olivier Méhu
Supporto tecnico e logistico : Manuel Goepfert
Aiuto per la traduzione : Arnaldo La Scala

Contatto : metmap@orbifly.com




FONTI E CREDITI :

   NOAA